sensor_id;sensor_type;location;lat;lon;timestamp;temperature;humidity
36990;DHT22;22898;52.102;5.776;2023-07-31T00:00:14;22.90;99.90
36990;DHT22;22898;52.102;5.776;2023-07-31T00:02:39;23.10;99.90
36990;DHT22;22898;52.102;5.776;2023-07-31T00:05:05;23.20;99.90
36990;DHT22;22898;52.102;5.776;2023-07-31T00:07:32;23.40;99.90
36990;DHT22;22898;52.102;5.776;2023-07-31T00:09:57;23.50;99.90
36990;DHT22;22898;52.102;5.776;2023-07-31T00:12:23;23.50;99.90
36990;DHT22;22898;52.102;5.776;2023-07-31T00:14:49;23.50;99.90
36990;DHT22;22898;52.102;5.776;2023-07-31T00:17:17;23.50;99.90
36990;DHT22;22898;52.102;5.776;2023-07-31T00:19:43;23.40;99.90
36990;DHT22;22898;52.102;5.776;2023-07-31T00:22:08;23.50;99.90
36990;DHT22;22898;52.102;5.776;2023-07-31T00:24:34;23.70;99.90
36990;DHT22;22898;52.102;5.776;2023-07-31T00:26:59;23.70;99.90
36990;DHT22;22898;52.102;5.776;2023-07-31T00:29:25;23.80;99.90
36990;DHT22;22898;52.102;5.776;2023-07-31T00:31:50;23.80;99.90
36990;DHT22;22898;52.102;5.776;2023-07-31T00:34:16;23.90;99.90
36990;DHT22;22898;52.102;5.776;2023-07-31T00:36:41;24.00;99.90
36990;DHT22;22898;52.102;5.776;2023-07-31T00:39:07;24.00;99.90
36990;DHT22;22898;52.102;5.776;2023-07-31T00:41:32;24.00;99.90
36990;DHT22;22898;52.102;5.776;2023-07-31T00:43:58;23.90;99.90
36990;DHT22;22898;52.102;5.776;2023-07-31T00:46:23;24.00;99.90
36990;DHT22;22898;52.102;5.776;2023-07-31T00:48:49;24.00;99.90
36990;DHT22;22898;52.102;5.776;2023-07-31T00:51:15;23.90;99.90
36990;DHT22;22898;52.102;5.776;2023-07-31T00:53:41;23.90;99.90
36990;DHT22;22898;52.102;5.776;2023-07-31T00:56:08;23.80;99.90
36990;DHT22;22898;52.102;5.776;2023-07-31T00:58:34;23.70;99.90
36990;DHT22;22898;52.102;5.776;2023-07-31T01:00:59;23.70;99.90
36990;DHT22;22898;52.102;5.776;2023-07-31T01:03:25;23.60;99.90
36990;DHT22;22898;52.102;5.776;2023-07-31T01:08:58;22.60;99.90
36990;DHT22;22898;52.102;5.776;2023-07-31T01:11:41;22.20;99.90
36990;DHT22;22898;52.102;5.776;2023-07-31T01:14:08;22.30;99.90
36990;DHT22;22898;52.102;5.776;2023-07-31T01:16:34;22.20;99.90
36990;DHT22;22898;52.102;5.776;2023-07-31T01:18:59;21.80;99.90
36990;DHT22;22898;52.102;5.776;2023-07-31T01:24:22;21.10;99.90
36990;DHT22;22898;52.102;5.776;2023-07-31T01:26:59;20.60;99.90
36990;DHT22;22898;52.102;5.776;2023-07-31T01:29:40;20.60;99.90
36990;DHT22;22898;52.102;5.776;2023-07-31T01:32:07;20.50;99.90
36990;DHT22;22898;52.102;5.776;2023-07-31T01:34:34;20.80;99.90
36990;DHT22;22898;52.102;5.776;2023-07-31T01:37:00;20.90;99.90
36990;DHT22;22898;52.102;5.776;2023-07-31T01:39:26;21.00;99.90
36990;DHT22;22898;52.102;5.776;2023-07-31T01:41:51;21.20;99.90
36990;DHT22;22898;52.102;5.776;2023-07-31T01:44:17;21.10;99.90
36990;DHT22;22898;52.102;5.776;2023-07-31T01:46:43;20.70;99.90
36990;DHT22;22898;52.102;5.776;2023-07-31T01:49:08;20.60;99.90
36990;DHT22;22898;52.102;5.776;2023-07-31T01:51:34;20.80;99.90
36990;DHT22;22898;52.102;5.776;2023-07-31T01:54:00;21.00;99.90
36990;DHT22;22898;52.102;5.776;2023-07-31T01:56:26;20.60;99.90
36990;DHT22;22898;52.102;5.776;2023-07-31T01:58:52;20.20;99.90
36990;DHT22;22898;52.102;5.776;2023-07-31T02:01:17;20.20;99.90
36990;DHT22;22898;52.102;5.776;2023-07-31T02:03:43;20.40;99.90
36990;DHT22;22898;52.102;5.776;2023-07-31T02:06:08;20.60;99.90
36990;DHT22;22898;52.102;5.776;2023-07-31T02:08:34;20.80;99.90
36990;DHT22;22898;52.102;5.776;2023-07-31T02:10:59;20.70;99.90
36990;DHT22;22898;52.102;5.776;2023-07-31T02:13:25;21.00;99.90
36990;DHT22;22898;52.102;5.776;2023-07-31T02:15:50;21.00;99.90
36990;DHT22;22898;52.102;5.776;2023-07-31T02:18:16;20.50;99.90
36990;DHT22;22898;52.102;5.776;2023-07-31T02:20:42;20.20;99.90
36990;DHT22;22898;52.102;5.776;2023-07-31T02:23:07;20.20;99.90
36990;DHT22;22898;52.102;5.776;2023-07-31T02:25:33;20.30;99.90
36990;DHT22;22898;52.102;5.776;2023-07-31T02:27:58;20.30;99.90
36990;DHT22;22898;52.102;5.776;2023-07-31T02:30:24;20.20;99.90
36990;DHT22;22898;52.102;5.776;2023-07-31T02:32:50;20.00;99.90
36990;DHT22;22898;52.102;5.776;2023-07-31T02:35:15;20.00;99.90
36990;DHT22;22898;52.102;5.776;2023-07-31T02:37:42;20.10;99.90
36990;DHT22;22898;52.102;5.776;2023-07-31T02:40:08;20.10;99.90
36990;DHT22;22898;52.102;5.776;2023-07-31T02:42:34;19.70;99.90
36990;DHT22;22898;52.102;5.776;2023-07-31T02:44:59;19.80;99.90
36990;DHT22;22898;52.102;5.776;2023-07-31T02:47:25;19.70;99.90
36990;DHT22;22898;52.102;5.776;2023-07-31T02:49:50;19.90;99.90
36990;DHT22;22898;52.102;5.776;2023-07-31T02:52:16;20.30;99.90
36990;DHT22;22898;52.102;5.776;2023-07-31T02:54:42;20.80;99.90
36990;DHT22;22898;52.102;5.776;2023-07-31T02:57:07;20.90;99.90
36990;DHT22;22898;52.102;5.776;2023-07-31T02:59:33;21.00;99.90
36990;DHT22;22898;52.102;5.776;2023-07-31T03:01:58;21.20;99.90
36990;DHT22;22898;52.102;5.776;2023-07-31T03:04:24;21.20;99.90
36990;DHT22;22898;52.102;5.776;2023-07-31T03:06:49;21.00;99.90
36990;DHT22;22898;52.102;5.776;2023-07-31T03:09:15;21.10;99.90
36990;DHT22;22898;52.102;5.776;2023-07-31T03:11:41;21.00;99.90
36990;DHT22;22898;52.102;5.776;2023-07-31T03:14:06;21.30;99.90
36990;DHT22;22898;52.102;5.776;2023-07-31T03:16:32;21.60;99.90
36990;DHT22;22898;52.102;5.776;2023-07-31T03:18:57;21.50;99.90
36990;DHT22;22898;52.102;5.776;2023-07-31T03:21:23;21.20;99.90
36990;DHT22;22898;52.102;5.776;2023-07-31T03:23:48;21.20;99.90
36990;DHT22;22898;52.102;5.776;2023-07-31T03:26:14;21.10;99.90
36990;DHT22;22898;52.102;5.776;2023-07-31T03:28:40;21.20;99.90
36990;DHT22;22898;52.102;5.776;2023-07-31T03:31:05;21.20;99.90
36990;DHT22;22898;52.102;5.776;2023-07-31T03:33:31;21.20;99.90
36990;DHT22;22898;52.102;5.776;2023-07-31T03:35:57;21.50;99.90
36990;DHT22;22898;52.102;5.776;2023-07-31T03:38:22;21.70;99.90
36990;DHT22;22898;52.102;5.776;2023-07-31T03:40:48;21.40;99.90
36990;DHT22;22898;52.102;5.776;2023-07-31T03:43:14;21.20;99.90
36990;DHT22;22898;52.102;5.776;2023-07-31T03:45:40;21.00;99.90
36990;DHT22;22898;52.102;5.776;2023-07-31T03:48:06;21.10;99.90
36990;DHT22;22898;52.102;5.776;2023-07-31T03:50:33;21.40;99.90
36990;DHT22;22898;52.102;5.776;2023-07-31T03:52:58;21.10;99.90
36990;DHT22;22898;52.102;5.776;2023-07-31T03:55:24;21.00;99.90
36990;DHT22;22898;52.102;5.776;2023-07-31T03:57:49;20.90;99.90
36990;DHT22;22898;52.102;5.776;2023-07-31T04:00:15;21.10;99.90
36990;DHT22;22898;52.102;5.776;2023-07-31T04:02:40;21.10;99.90
36990;DHT22;22898;52.102;5.776;2023-07-31T04:05:06;20.80;99.90
36990;DHT22;22898;52.102;5.776;2023-07-31T04:07:32;20.80;99.90
36990;DHT22;22898;52.102;5.776;2023-07-31T04:09:58;21.00;99.90
36990;DHT22;22898;52.102;5.776;2023-07-31T04:12:23;21.20;99.90
36990;DHT22;22898;52.102;5.776;2023-07-31T04:14:49;21.00;99.90
36990;DHT22;22898;52.102;5.776;2023-07-31T04:17:15;21.30;99.90
36990;DHT22;22898;52.102;5.776;2023-07-31T04:19:42;21.60;99.90
36990;DHT22;22898;52.102;5.776;2023-07-31T04:22:08;21.60;99.90
36990;DHT22;22898;52.102;5.776;2023-07-31T04:24:33;21.60;99.90
36990;DHT22;22898;52.102;5.776;2023-07-31T04:26:59;21.90;99.90
36990;DHT22;22898;52.102;5.776;2023-07-31T04:29:24;22.40;99.90
36990;DHT22;22898;52.102;5.776;2023-07-31T04:31:50;22.70;99.90
36990;DHT22;22898;52.102;5.776;2023-07-31T04:34:15;22.70;99.90
36990;DHT22;22898;52.102;5.776;2023-07-31T04:36:41;22.50;99.90
36990;DHT22;22898;52.102;5.776;2023-07-31T04:39:06;22.40;99.90
36990;DHT22;22898;52.102;5.776;2023-07-31T04:41:32;22.70;99.90
36990;DHT22;22898;52.102;5.776;2023-07-31T04:43:58;22.50;99.90
36990;DHT22;22898;52.102;5.776;2023-07-31T04:46:23;22.20;99.90
36990;DHT22;22898;52.102;5.776;2023-07-31T04:48:49;22.40;99.90
36990;DHT22;22898;52.102;5.776;2023-07-31T04:51:14;22.50;99.90
36990;DHT22;22898;52.102;5.776;2023-07-31T04:53:40;22.40;99.90
36990;DHT22;22898;52.102;5.776;2023-07-31T04:56:05;22.10;99.90
36990;DHT22;22898;52.102;5.776;2023-07-31T04:58:31;22.00;99.90
36990;DHT22;22898;52.102;5.776;2023-07-31T05:00:56;21.80;99.90
36990;DHT22;22898;52.102;5.776;2023-07-31T05:03:22;21.90;99.90
36990;DHT22;22898;52.102;5.776;2023-07-31T05:05:48;22.20;99.90
36990;DHT22;22898;52.102;5.776;2023-07-31T05:08:13;22.40;99.90
36990;DHT22;22898;52.102;5.776;2023-07-31T05:10:39;22.30;99.90
36990;DHT22;22898;52.102;5.776;2023-07-31T05:13:04;22.10;99.90
36990;DHT22;22898;52.102;5.776;2023-07-31T05:15:30;22.00;99.90
36990;DHT22;22898;52.102;5.776;2023-07-31T05:17:56;22.10;99.90
36990;DHT22;22898;52.102;5.776;2023-07-31T05:20:21;22.00;99.90
36990;DHT22;22898;52.102;5.776;2023-07-31T05:22:47;22.10;99.90
36990;DHT22;22898;52.102;5.776;2023-07-31T05:25:13;22.40;99.90
36990;DHT22;22898;52.102;5.776;2023-07-31T05:27:38;22.40;99.90
36990;DHT22;22898;52.102;5.776;2023-07-31T05:30:04;22.30;99.90
36990;DHT22;22898;52.102;5.776;2023-07-31T05:32:30;22.50;99.90
36990;DHT22;22898;52.102;5.776;2023-07-31T05:34:56;22.50;99.90
36990;DHT22;22898;52.102;5.776;2023-07-31T05:37:22;22.60;99.90
36990;DHT22;22898;52.102;5.776;2023-07-31T05:39:48;22.60;99.90
36990;DHT22;22898;52.102;5.776;2023-07-31T05:42:13;22.80;99.90
36990;DHT22;22898;52.102;5.776;2023-07-31T05:44:39;22.80;99.90
36990;DHT22;22898;52.102;5.776;2023-07-31T05:47:04;22.60;99.90
36990;DHT22;22898;52.102;5.776;2023-07-31T05:49:30;22.10;99.90
36990;DHT22;22898;52.102;5.776;2023-07-31T05:51:56;21.80;99.90
36990;DHT22;22898;52.102;5.776;2023-07-31T05:54:21;22.00;99.90
36990;DHT22;22898;52.102;5.776;2023-07-31T05:56:47;21.70;99.90
36990;DHT22;22898;52.102;5.776;2023-07-31T05:59:13;21.70;99.90
36990;DHT22;22898;52.102;5.776;2023-07-31T06:01:39;21.60;99.90
36990;DHT22;22898;52.102;5.776;2023-07-31T06:04:04;21.70;99.90
36990;DHT22;22898;52.102;5.776;2023-07-31T06:06:30;21.70;99.90
36990;DHT22;22898;52.102;5.776;2023-07-31T06:08:56;21.90;99.90
36990;DHT22;22898;52.102;5.776;2023-07-31T06:11:22;22.30;99.90
36990;DHT22;22898;52.102;5.776;2023-07-31T06:13:47;22.40;99.90
36990;DHT22;22898;52.102;5.776;2023-07-31T06:16:14;22.30;99.90
36990;DHT22;22898;52.102;5.776;2023-07-31T06:18:41;22.00;99.90
36990;DHT22;22898;52.102;5.776;2023-07-31T06:21:07;21.90;99.90
36990;DHT22;22898;52.102;5.776;2023-07-31T06:23:33;21.90;99.90
36990;DHT22;22898;52.102;5.776;2023-07-31T06:25:58;22.00;99.90
36990;DHT22;22898;52.102;5.776;2023-07-31T06:28:28;21.90;99.90
36990;DHT22;22898;52.102;5.776;2023-07-31T06:31:00;21.70;99.90
36990;DHT22;22898;52.102;5.776;2023-07-31T06:33:26;21.70;99.90
36990;DHT22;22898;52.102;5.776;2023-07-31T06:35:52;22.10;99.90
36990;DHT22;22898;52.102;5.776;2023-07-31T06:38:24;22.30;99.90
36990;DHT22;22898;52.102;5.776;2023-07-31T06:40:50;22.10;99.90
36990;DHT22;22898;52.102;5.776;2023-07-31T06:43:16;21.70;99.90
36990;DHT22;22898;52.102;5.776;2023-07-31T06:45:41;21.60;99.90
36990;DHT22;22898;52.102;5.776;2023-07-31T06:48:07;21.40;99.90
36990;DHT22;22898;52.102;5.776;2023-07-31T06:50:32;21.30;99.90
36990;DHT22;22898;52.102;5.776;2023-07-31T06:52:58;21.40;99.90
36990;DHT22;22898;52.102;5.776;2023-07-31T06:55:24;21.70;99.90
36990;DHT22;22898;52.102;5.776;2023-07-31T06:57:52;21.90;99.90
36990;DHT22;22898;52.102;5.776;2023-07-31T07:00:19;21.90;99.90
36990;DHT22;22898;52.102;5.776;2023-07-31T07:02:45;21.60;99.90
36990;DHT22;22898;52.102;5.776;2023-07-31T07:05:13;21.50;99.90
36990;DHT22;22898;52.102;5.776;2023-07-31T07:07:38;21.60;99.90
36990;DHT22;22898;52.102;5.776;2023-07-31T07:10:04;21.80;99.90
36990;DHT22;22898;52.102;5.776;2023-07-31T07:12:31;21.90;99.90
36990;DHT22;22898;52.102;5.776;2023-07-31T07:14:57;21.90;99.90
36990;DHT22;22898;52.102;5.776;2023-07-31T07:17:23;22.10;99.90
36990;DHT22;22898;52.102;5.776;2023-07-31T07:19:49;21.90;99.90
36990;DHT22;22898;52.102;5.776;2023-07-31T07:22:15;21.70;99.90
36990;DHT22;22898;52.102;5.776;2023-07-31T07:24:41;21.70;99.90
36990;DHT22;22898;52.102;5.776;2023-07-31T07:27:06;21.60;99.90
36990;DHT22;22898;52.102;5.776;2023-07-31T07:29:34;21.90;99.90
36990;DHT22;22898;52.102;5.776;2023-07-31T07:32:00;22.20;99.90
36990;DHT22;22898;52.102;5.776;2023-07-31T07:34:26;21.80;99.90
36990;DHT22;22898;52.102;5.776;2023-07-31T07:36:52;21.60;99.90
36990;DHT22;22898;52.102;5.776;2023-07-31T07:39:18;21.70;99.90
36990;DHT22;22898;52.102;5.776;2023-07-31T07:41:43;21.80;99.90
36990;DHT22;22898;52.102;5.776;2023-07-31T07:44:09;21.80;99.90
36990;DHT22;22898;52.102;5.776;2023-07-31T07:46:34;21.80;99.90
36990;DHT22;22898;52.102;5.776;2023-07-31T07:49:00;21.60;99.90
36990;DHT22;22898;52.102;5.776;2023-07-31T07:51:26;21.40;99.90
36990;DHT22;22898;52.102;5.776;2023-07-31T07:53:51;21.20;99.90
36990;DHT22;22898;52.102;5.776;2023-07-31T07:56:17;21.20;99.90
36990;DHT22;22898;52.102;5.776;2023-07-31T07:58:42;21.00;99.90
36990;DHT22;22898;52.102;5.776;2023-07-31T08:01:08;21.10;99.90
36990;DHT22;22898;52.102;5.776;2023-07-31T08:03:33;21.50;99.90
36990;DHT22;22898;52.102;5.776;2023-07-31T08:06:00;21.20;99.90
36990;DHT22;22898;52.102;5.776;2023-07-31T08:08:26;20.90;99.90
36990;DHT22;22898;52.102;5.776;2023-07-31T08:10:51;20.90;99.90
36990;DHT22;22898;52.102;5.776;2023-07-31T08:13:17;21.10;99.90
36990;DHT22;22898;52.102;5.776;2023-07-31T08:15:43;21.20;99.90
36990;DHT22;22898;52.102;5.776;2023-07-31T08:18:09;21.30;99.90
36990;DHT22;22898;52.102;5.776;2023-07-31T08:20:35;20.70;99.90
36990;DHT22;22898;52.102;5.776;2023-07-31T08:23:00;20.70;99.90
36990;DHT22;22898;52.102;5.776;2023-07-31T08:25:26;21.00;99.90
36990;DHT22;22898;52.102;5.776;2023-07-31T08:27:52;21.00;99.90
36990;DHT22;22898;52.102;5.776;2023-07-31T08:30:18;21.10;99.90
36990;DHT22;22898;52.102;5.776;2023-07-31T08:32:44;20.80;99.90
36990;DHT22;22898;52.102;5.776;2023-07-31T08:35:10;21.00;99.90
36990;DHT22;22898;52.102;5.776;2023-07-31T08:37:37;21.50;99.90
36990;DHT22;22898;52.102;5.776;2023-07-31T08:40:04;21.70;99.90
36990;DHT22;22898;52.102;5.776;2023-07-31T08:42:30;21.80;99.90
36990;DHT22;22898;52.102;5.776;2023-07-31T08:44:56;21.40;99.90
36990;DHT22;22898;52.102;5.776;2023-07-31T08:47:23;21.40;99.90
36990;DHT22;22898;52.102;5.776;2023-07-31T08:49:50;21.50;99.90
36990;DHT22;22898;52.102;5.776;2023-07-31T08:52:16;21.70;99.90
36990;DHT22;22898;52.102;5.776;2023-07-31T08:54:42;21.60;99.90
36990;DHT22;22898;52.102;5.776;2023-07-31T08:57:07;21.60;99.90
36990;DHT22;22898;52.102;5.776;2023-07-31T08:59:35;21.70;99.90
36990;DHT22;22898;52.102;5.776;2023-07-31T09:02:06;21.70;99.90
36990;DHT22;22898;52.102;5.776;2023-07-31T09:04:33;21.50;99.90
36990;DHT22;22898;52.102;5.776;2023-07-31T09:07:03;21.30;99.90
36990;DHT22;22898;52.102;5.776;2023-07-31T09:09:30;21.50;99.90
36990;DHT22;22898;52.102;5.776;2023-07-31T09:11:57;21.70;99.90
36990;DHT22;22898;52.102;5.776;2023-07-31T09:14:24;22.10;99.90
36990;DHT22;22898;52.102;5.776;2023-07-31T09:16:57;21.90;99.90
36990;DHT22;22898;52.102;5.776;2023-07-31T09:19:32;21.30;99.90
36990;DHT22;22898;52.102;5.776;2023-07-31T09:21:59;21.10;99.90
36990;DHT22;22898;52.102;5.776;2023-07-31T09:24:26;21.20;99.90
36990;DHT22;22898;52.102;5.776;2023-07-31T09:26:54;21.00;99.90
36990;DHT22;22898;52.102;5.776;2023-07-31T09:29:20;20.90;99.90
36990;DHT22;22898;52.102;5.776;2023-07-31T09:31:46;21.00;99.90
36990;DHT22;22898;52.102;5.776;2023-07-31T09:34:12;21.10;99.90
36990;DHT22;22898;52.102;5.776;2023-07-31T09:36:49;20.80;99.90
36990;DHT22;22898;52.102;5.776;2023-07-31T09:39:16;21.10;99.90
36990;DHT22;22898;52.102;5.776;2023-07-31T09:41:44;21.10;99.90
36990;DHT22;22898;52.102;5.776;2023-07-31T09:44:10;21.00;99.90
36990;DHT22;22898;52.102;5.776;2023-07-31T09:46:36;20.90;99.90
36990;DHT22;22898;52.102;5.776;2023-07-31T09:49:08;20.80;99.90
36990;DHT22;22898;52.102;5.776;2023-07-31T09:51:35;21.00;99.90
36990;DHT22;22898;52.102;5.776;2023-07-31T09:54:08;21.00;99.90
36990;DHT22;22898;52.102;5.776;2023-07-31T09:56:35;21.00;99.90
36990;DHT22;22898;52.102;5.776;2023-07-31T09:59:02;21.10;99.90
36990;DHT22;22898;52.102;5.776;2023-07-31T10:01:29;21.40;99.90
36990;DHT22;22898;52.102;5.776;2023-07-31T10:03:55;21.80;99.90
36990;DHT22;22898;52.102;5.776;2023-07-31T10:06:23;21.70;99.90
36990;DHT22;22898;52.102;5.776;2023-07-31T10:08:51;21.60;99.90
36990;DHT22;22898;52.102;5.776;2023-07-31T10:11:18;21.20;99.90
36990;DHT22;22898;52.102;5.776;2023-07-31T10:13:45;21.30;99.90
36990;DHT22;22898;52.102;5.776;2023-07-31T10:16:12;21.40;99.90
36990;DHT22;22898;52.102;5.776;2023-07-31T10:18:39;21.50;99.90
36990;DHT22;22898;52.102;5.776;2023-07-31T10:21:05;21.80;99.90
36990;DHT22;22898;52.102;5.776;2023-07-31T10:23:31;21.40;99.90
36990;DHT22;22898;52.102;5.776;2023-07-31T10:25:58;21.40;99.90
36990;DHT22;22898;52.102;5.776;2023-07-31T10:28:26;21.50;99.90
36990;DHT22;22898;52.102;5.776;2023-07-31T10:30:52;21.50;99.90
36990;DHT22;22898;52.102;5.776;2023-07-31T10:33:18;21.80;99.90
36990;DHT22;22898;52.102;5.776;2023-07-31T10:35:47;21.70;99.90
36990;DHT22;22898;52.102;5.776;2023-07-31T10:38:13;21.80;99.90
36990;DHT22;22898;52.102;5.776;2023-07-31T10:40:39;22.10;99.90
36990;DHT22;22898;52.102;5.776;2023-07-31T10:43:05;22.20;99.90
36990;DHT22;22898;52.102;5.776;2023-07-31T10:45:42;22.30;99.90
36990;DHT22;22898;52.102;5.776;2023-07-31T10:48:15;22.40;99.90
36990;DHT22;22898;52.102;5.776;2023-07-31T10:51:11;22.40;99.90
36990;DHT22;22898;52.102;5.776;2023-07-31T10:53:39;22.80;99.90
36990;DHT22;22898;52.102;5.776;2023-07-31T10:56:09;22.90;99.90
36990;DHT22;22898;52.102;5.776;2023-07-31T10:58:38;22.90;99.90
36990;DHT22;22898;52.102;5.776;2023-07-31T11:01:05;22.60;99.90
36990;DHT22;22898;52.102;5.776;2023-07-31T11:03:46;22.80;99.90
36990;DHT22;22898;52.102;5.776;2023-07-31T11:06:13;22.90;99.90
36990;DHT22;22898;52.102;5.776;2023-07-31T11:08:50;22.80;99.90
36990;DHT22;22898;52.102;5.776;2023-07-31T11:11:17;22.80;99.90
36990;DHT22;22898;52.102;5.776;2023-07-31T11:16:21;22.50;99.90
36990;DHT22;22898;52.102;5.776;2023-07-31T11:18:48;22.60;99.90
36990;DHT22;22898;52.102;5.776;2023-07-31T11:21:24;22.60;99.90
36990;DHT22;22898;52.102;5.776;2023-07-31T11:23:52;22.80;99.90
36990;DHT22;22898;52.102;5.776;2023-07-31T11:26:19;23.00;99.90
36990;DHT22;22898;52.102;5.776;2023-07-31T11:28:47;22.80;99.90
36990;DHT22;22898;52.102;5.776;2023-07-31T11:31:13;22.70;99.90
36990;DHT22;22898;52.102;5.776;2023-07-31T11:33:39;22.90;99.90
36990;DHT22;22898;52.102;5.776;2023-07-31T11:36:05;22.80;99.90
36990;DHT22;22898;52.102;5.776;2023-07-31T11:38:32;22.70;99.90
36990;DHT22;22898;52.102;5.776;2023-07-31T11:41:03;22.50;99.90
36990;DHT22;22898;52.102;5.776;2023-07-31T11:43:30;22.40;99.90
36990;DHT22;22898;52.102;5.776;2023-07-31T11:45:57;22.40;99.90
36990;DHT22;22898;52.102;5.776;2023-07-31T11:48:31;22.40;99.90
36990;DHT22;22898;52.102;5.776;2023-07-31T11:51:00;22.30;99.90
36990;DHT22;22898;52.102;5.776;2023-07-31T11:53:42;22.30;99.90
36990;DHT22;22898;52.102;5.776;2023-07-31T11:56:11;22.40;99.90
36990;DHT22;22898;52.102;5.776;2023-07-31T11:58:39;22.30;99.90
36990;DHT22;22898;52.102;5.776;2023-07-31T12:01:05;22.20;99.90
36990;DHT22;22898;52.102;5.776;2023-07-31T12:03:32;22.20;99.90
36990;DHT22;22898;52.102;5.776;2023-07-31T12:05:59;22.50;99.90
36990;DHT22;22898;52.102;5.776;2023-07-31T12:08:25;22.50;99.90
36990;DHT22;22898;52.102;5.776;2023-07-31T12:10:52;22.60;99.90
36990;DHT22;22898;52.102;5.776;2023-07-31T12:13:26;22.80;99.90
36990;DHT22;22898;52.102;5.776;2023-07-31T12:16:00;22.90;99.90
36990;DHT22;22898;52.102;5.776;2023-07-31T12:18:27;23.30;99.90
36990;DHT22;22898;52.102;5.776;2023-07-31T12:20:58;23.50;99.90
36990;DHT22;22898;52.102;5.776;2023-07-31T12:23:30;23.60;99.90
36990;DHT22;22898;52.102;5.776;2023-07-31T12:26:13;23.50;99.90
36990;DHT22;22898;52.102;5.776;2023-07-31T12:28:43;23.30;99.90
36990;DHT22;22898;52.102;5.776;2023-07-31T12:31:11;23.30;99.90
36990;DHT22;22898;52.102;5.776;2023-07-31T12:33:38;23.20;99.90
36990;DHT22;22898;52.102;5.776;2023-07-31T12:36:10;23.20;99.90
36990;DHT22;22898;52.102;5.776;2023-07-31T12:38:36;23.40;99.90
36990;DHT22;22898;52.102;5.776;2023-07-31T12:41:02;23.60;99.90
36990;DHT22;22898;52.102;5.776;2023-07-31T12:43:27;23.90;99.90
36990;DHT22;22898;52.102;5.776;2023-07-31T12:45:54;23.10;99.90
36990;DHT22;22898;52.102;5.776;2023-07-31T12:48:20;22.70;99.90
36990;DHT22;22898;52.102;5.776;2023-07-31T12:50:45;22.60;99.90
36990;DHT22;22898;52.102;5.776;2023-07-31T12:53:11;22.60;99.90
36990;DHT22;22898;52.102;5.776;2023-07-31T12:55:36;22.50;99.90
36990;DHT22;22898;52.102;5.776;2023-07-31T12:58:02;22.90;99.90
36990;DHT22;22898;52.102;5.776;2023-07-31T13:00:28;22.80;99.90
36990;DHT22;22898;52.102;5.776;2023-07-31T13:02:53;23.00;99.90
36990;DHT22;22898;52.102;5.776;2023-07-31T13:05:20;23.40;99.90
36990;DHT22;22898;52.102;5.776;2023-07-31T13:07:47;23.40;99.90
36990;DHT22;22898;52.102;5.776;2023-07-31T13:10:12;23.20;99.90
36990;DHT22;22898;52.102;5.776;2023-07-31T13:12:38;23.20;99.90
36990;DHT22;22898;52.102;5.776;2023-07-31T13:15:05;23.90;99.90
36990;DHT22;22898;52.102;5.776;2023-07-31T13:17:31;24.30;99.90
36990;DHT22;22898;52.102;5.776;2023-07-31T13:19:58;24.20;99.90
36990;DHT22;22898;52.102;5.776;2023-07-31T13:22:23;23.90;99.90
36990;DHT22;22898;52.102;5.776;2023-07-31T13:24:49;23.90;99.90
36990;DHT22;22898;52.102;5.776;2023-07-31T13:27:15;24.10;99.90
36990;DHT22;22898;52.102;5.776;2023-07-31T13:29:53;24.30;99.90
36990;DHT22;22898;52.102;5.776;2023-07-31T13:32:20;24.70;99.90
36990;DHT22;22898;52.102;5.776;2023-07-31T13:34:47;24.60;99.90
36990;DHT22;22898;52.102;5.776;2023-07-31T13:37:13;24.90;99.90
36990;DHT22;22898;52.102;5.776;2023-07-31T13:39:39;25.10;99.90
36990;DHT22;22898;52.102;5.776;2023-07-31T13:42:06;24.70;99.90
36990;DHT22;22898;52.102;5.776;2023-07-31T13:44:40;24.50;99.90
36990;DHT22;22898;52.102;5.776;2023-07-31T13:47:06;24.30;99.90
36990;DHT22;22898;52.102;5.776;2023-07-31T13:49:32;24.20;99.90
36990;DHT22;22898;52.102;5.776;2023-07-31T13:51:58;24.10;99.90
36990;DHT22;22898;52.102;5.776;2023-07-31T13:54:24;24.00;99.90
36990;DHT22;22898;52.102;5.776;2023-07-31T13:56:51;23.90;99.90
36990;DHT22;22898;52.102;5.776;2023-07-31T13:59:17;24.00;99.90
36990;DHT22;22898;52.102;5.776;2023-07-31T14:01:44;24.30;99.90
36990;DHT22;22898;52.102;5.776;2023-07-31T14:04:09;24.30;99.90
36990;DHT22;22898;52.102;5.776;2023-07-31T14:06:35;24.00;99.90
36990;DHT22;22898;52.102;5.776;2023-07-31T14:09:01;23.70;99.90
36990;DHT22;22898;52.102;5.776;2023-07-31T14:11:28;23.40;99.90
36990;DHT22;22898;52.102;5.776;2023-07-31T14:13:53;23.10;99.90
36990;DHT22;22898;52.102;5.776;2023-07-31T14:16:19;23.00;99.90
36990;DHT22;22898;52.102;5.776;2023-07-31T14:18:44;22.90;99.90
36990;DHT22;22898;52.102;5.776;2023-07-31T14:21:13;23.20;99.90
36990;DHT22;22898;52.102;5.776;2023-07-31T14:23:39;22.90;99.90
36990;DHT22;22898;52.102;5.776;2023-07-31T14:26:05;23.00;99.90
36990;DHT22;22898;52.102;5.776;2023-07-31T14:28:32;23.20;99.90
36990;DHT22;22898;52.102;5.776;2023-07-31T14:30:58;23.20;99.90
36990;DHT22;22898;52.102;5.776;2023-07-31T14:33:23;23.00;99.90
36990;DHT22;22898;52.102;5.776;2023-07-31T14:35:49;22.90;99.90
36990;DHT22;22898;52.102;5.776;2023-07-31T14:38:14;23.00;99.90
36990;DHT22;22898;52.102;5.776;2023-07-31T14:40:40;23.30;99.90
36990;DHT22;22898;52.102;5.776;2023-07-31T14:43:06;23.10;99.90
36990;DHT22;22898;52.102;5.776;2023-07-31T14:45:31;23.20;99.90
36990;DHT22;22898;52.102;5.776;2023-07-31T14:47:57;23.20;99.90
36990;DHT22;22898;52.102;5.776;2023-07-31T14:50:23;23.30;99.90
36990;DHT22;22898;52.102;5.776;2023-07-31T14:52:50;23.40;99.90
36990;DHT22;22898;52.102;5.776;2023-07-31T14:55:16;23.40;99.90
36990;DHT22;22898;52.102;5.776;2023-07-31T14:57:41;23.10;99.90
36990;DHT22;22898;52.102;5.776;2023-07-31T15:00:07;23.10;99.90
36990;DHT22;22898;52.102;5.776;2023-07-31T15:02:34;23.30;99.90
36990;DHT22;22898;52.102;5.776;2023-07-31T15:05:01;23.10;99.90
36990;DHT22;22898;52.102;5.776;2023-07-31T15:07:26;22.90;99.90
36990;DHT22;22898;52.102;5.776;2023-07-31T15:09:52;22.80;99.90
36990;DHT22;22898;52.102;5.776;2023-07-31T15:12:18;23.10;99.90
36990;DHT22;22898;52.102;5.776;2023-07-31T15:14:43;23.00;99.90
36990;DHT22;22898;52.102;5.776;2023-07-31T15:17:09;23.30;99.90
36990;DHT22;22898;52.102;5.776;2023-07-31T15:19:34;23.60;99.90
36990;DHT22;22898;52.102;5.776;2023-07-31T15:22:02;23.60;99.90
36990;DHT22;22898;52.102;5.776;2023-07-31T15:24:28;23.70;99.90
36990;DHT22;22898;52.102;5.776;2023-07-31T15:26:54;23.80;99.90
36990;DHT22;22898;52.102;5.776;2023-07-31T15:29:20;23.70;99.90
36990;DHT22;22898;52.102;5.776;2023-07-31T15:31:46;23.10;99.90
36990;DHT22;22898;52.102;5.776;2023-07-31T15:34:15;23.20;99.90